createdAt,value
2023-04-04T00:00:33.552Z,35.32
2023-04-04T00:03:00.226Z,35.67
2023-04-04T00:05:26.818Z,36.02
2023-04-04T00:07:53.390Z,36.05
2023-04-04T00:10:19.978Z,35.90
2023-04-04T00:12:46.666Z,35.19
2023-04-04T00:15:13.358Z,37.01
2023-04-04T00:17:39.973Z,36.23
2023-04-04T00:20:06.546Z,36.73
2023-04-04T00:22:33.149Z,36.68
2023-04-04T00:24:59.712Z,36.55
2023-04-04T00:27:26.532Z,38.01
2023-04-04T00:29:53.073Z,36.94
2023-04-04T00:32:19.694Z,36.51
2023-04-04T00:34:46.279Z,37.15
2023-04-04T00:37:13.186Z,37.16
2023-04-04T00:39:40.131Z,37.15
2023-04-04T00:42:06.682Z,36.80
2023-04-04T00:44:35.304Z,36.83
2023-04-04T00:47:01.866Z,37.14
2023-04-04T00:49:28.483Z,37.41
2023-04-04T00:51:55.030Z,38.22
2023-04-04T00:54:22.671Z,38.93
2023-04-04T00:56:49.257Z,38.41
2023-04-04T00:59:15.875Z,37.37
2023-04-04T01:01:42.619Z,37.92
2023-04-04T01:04:09.322Z,37.85
2023-04-04T01:06:35.917Z,37.60
2023-04-04T01:09:02.475Z,38.04
2023-04-04T01:11:29.068Z,38.20
2023-04-04T01:13:55.602Z,38.49
2023-04-04T01:16:22.254Z,38.85
2023-04-04T01:18:48.867Z,39.36
2023-04-04T01:21:15.437Z,39.01
2023-04-04T01:23:42.015Z,39.52
2023-04-04T01:26:08.603Z,38.52
2023-04-04T01:28:36.583Z,38.58
2023-04-04T01:31:03.306Z,39.63
2023-04-04T01:33:29.874Z,39.53
2023-04-04T01:35:56.488Z,39.82
2023-04-04T01:38:23.034Z,39.73
2023-04-04T01:40:49.608Z,40.02
2023-04-04T01:43:16.504Z,39.83
2023-04-04T01:45:43.145Z,39.94
2023-04-04T01:48:09.747Z,40.53
2023-04-04T01:50:36.330Z,40.54
2023-04-04T01:53:02.907Z,39.94
2023-04-04T01:55:29.497Z,40.91
2023-04-04T01:57:56.032Z,40.75
2023-04-04T02:00:22.598Z,39.97
2023-04-04T02:02:49.176Z,40.42
2023-04-04T02:05:15.812Z,40.54
2023-04-04T02:07:42.389Z,40.79
2023-04-04T02:10:08.978Z,40.70
2023-04-04T02:12:35.540Z,41.01
2023-04-04T02:15:02.137Z,40.92
2023-04-04T02:17:28.780Z,40.86
2023-04-04T02:19:55.438Z,41.52
2023-04-04T02:22:21.992Z,41.35
2023-04-04T02:24:48.615Z,41.15
2023-04-04T02:27:15.164Z,41.86
2023-04-04T02:29:42.270Z,41.74
2023-04-04T02:32:08.846Z,41.14
2023-04-04T02:34:35.454Z,41.41
2023-04-04T02:37:02.231Z,42.37
2023-04-04T02:39:28.770Z,41.72
2023-04-04T02:41:55.345Z,41.93
2023-04-04T02:44:21.881Z,42.08
2023-04-04T02:46:48.482Z,42.41
2023-04-04T02:49:15.040Z,42.48
2023-04-04T02:51:41.692Z,42.53
2023-04-04T02:54:08.243Z,42.42
2023-04-04T02:56:34.813Z,42.40
2023-04-04T02:59:01.453Z,42.35
2023-04-04T03:01:28.078Z,42.98
2023-04-04T03:03:54.928Z,43.22
2023-04-04T03:06:21.642Z,43.07
2023-04-04T03:08:48.231Z,43.25
2023-04-04T03:11:14.858Z,41.97
2023-04-04T03:13:41.418Z,40.97
2023-04-04T03:16:08.037Z,40.16
2023-04-04T03:18:34.665Z,39.91
2023-04-04T03:21:01.264Z,39.79
2023-04-04T03:23:27.808Z,39.18
2023-04-04T03:25:54.533Z,38.89
2023-04-04T03:28:21.183Z,39.36
2023-04-04T03:30:48.022Z,38.41
2023-04-04T03:33:14.565Z,37.86
2023-04-04T03:35:41.243Z,38.44
2023-04-04T03:38:07.897Z,38.45
2023-04-04T03:40:34.442Z,38.13
2023-04-04T03:43:01.036Z,37.89
2023-04-04T03:45:27.599Z,37.63
2023-04-04T03:47:54.270Z,37.87
2023-04-04T03:50:20.936Z,37.07
2023-04-04T03:52:47.496Z,37.36
2023-04-04T03:55:14.087Z,37.63
2023-04-04T03:57:40.651Z,37.37
2023-04-04T04:00:07.610Z,37.24
2023-04-04T04:02:34.211Z,36.70
2023-04-04T04:05:00.783Z,36.93
2023-04-04T04:07:27.419Z,36.49
2023-04-04T04:09:53.971Z,37.26
2023-04-04T04:12:20.541Z,37.02
2023-04-04T04:14:47.122Z,36.44
2023-04-04T04:17:13.700Z,36.51
2023-04-04T04:19:40.589Z,36.90
2023-04-04T04:22:07.130Z,36.82
2023-04-04T04:24:33.701Z,36.69
2023-04-04T04:27:00.298Z,36.01
2023-04-04T04:29:27.353Z,36.55
2023-04-04T04:31:54.739Z,36.49
2023-04-04T04:34:21.479Z,36.66
2023-04-04T04:36:48.054Z,37.21
2023-04-04T04:39:14.621Z,36.37
2023-04-04T04:41:41.247Z,36.25
2023-04-04T04:44:07.839Z,36.14
2023-04-04T04:46:34.396Z,36.09
2023-04-04T04:49:01.020Z,36.01
2023-04-04T04:51:27.615Z,36.64
2023-04-04T04:53:54.163Z,36.27
2023-04-04T04:56:20.695Z,36.25
2023-04-04T04:58:47.297Z,36.39
2023-04-04T05:01:14.002Z,36.62
2023-04-04T05:03:41.351Z,36.63
2023-04-04T05:06:07.937Z,35.75
2023-04-04T05:08:34.513Z,35.95
2023-04-04T05:11:02.154Z,36.38
2023-04-04T05:13:29.852Z,36.66
2023-04-04T05:15:56.417Z,36.08
2023-04-04T05:18:23.002Z,36.43
2023-04-04T05:20:49.629Z,36.30
2023-04-04T05:23:16.204Z,36.06
2023-04-04T05:25:43.071Z,36.20
2023-04-04T05:28:16.946Z,35.17
2023-04-04T05:30:43.607Z,35.98
2023-04-04T05:33:10.234Z,35.61
2023-04-04T05:35:36.911Z,35.63
2023-04-04T05:38:03.541Z,34.39
2023-04-04T05:40:30.105Z,34.43
2023-04-04T05:42:56.748Z,34.73
2023-04-04T05:45:23.296Z,34.62
2023-04-04T05:47:49.905Z,33.50
2023-04-04T05:50:16.513Z,33.63
2023-04-04T05:52:43.254Z,33.44
2023-04-04T05:55:09.806Z,32.18
2023-04-04T05:57:36.392Z,33.39
2023-04-04T06:00:03.025Z,33.16
2023-04-04T06:02:29.696Z,33.76
2023-04-04T06:04:56.361Z,32.48
2023-04-04T06:07:22.938Z,31.88
2023-04-04T06:09:49.518Z,32.02
2023-04-04T06:12:16.156Z,31.46
2023-04-04T06:14:42.704Z,31.94
2023-04-04T06:17:09.288Z,32.84
2023-04-04T06:19:35.984Z,32.82
2023-04-04T06:22:02.805Z,33.11
2023-04-04T06:24:29.384Z,32.29
2023-04-04T06:26:56.231Z,32.14
2023-04-04T06:29:22.788Z,31.65
2023-04-04T06:31:49.402Z,31.24
2023-04-04T06:34:16.067Z,32.16
2023-04-04T06:36:42.610Z,31.54
2023-04-04T06:39:09.256Z,31.03
2023-04-04T06:41:35.833Z,31.98
2023-04-04T06:44:02.384Z,31.00
2023-04-04T06:46:28.990Z,31.70
2023-04-04T06:48:55.583Z,30.78
2023-04-04T06:51:22.171Z,30.73
2023-04-04T06:53:48.889Z,30.64
2023-04-04T06:56:15.516Z,31.01
2023-04-04T06:58:42.113Z,31.04
2023-04-04T07:01:08.734Z,30.28
2023-04-04T07:03:35.336Z,31.12
2023-04-04T07:06:01.956Z,30.40
2023-04-04T07:08:30.417Z,30.11
2023-04-04T07:11:00.901Z,31.25
2023-04-04T07:13:27.454Z,30.93
2023-04-04T07:15:54.017Z,31.14
2023-04-04T07:18:20.561Z,30.61
2023-04-04T07:20:47.136Z,30.47
2023-04-04T07:23:13.733Z,30.02
2023-04-04T07:25:40.717Z,29.44
2023-04-04T07:28:12.733Z,30.01
2023-04-04T07:30:40.461Z,29.76
2023-04-04T07:33:07.221Z,29.86
2023-04-04T07:35:33.816Z,29.41
2023-04-04T07:38:00.405Z,28.99
2023-04-04T07:40:27.353Z,28.38
2023-04-04T07:42:53.974Z,28.98
2023-04-04T07:45:20.600Z,28.52
2023-04-04T07:47:47.194Z,29.57
2023-04-04T07:50:13.808Z,29.15
2023-04-04T07:52:40.395Z,28.86
2023-04-04T07:55:06.930Z,28.79
2023-04-04T07:57:33.491Z,29.01
2023-04-04T08:00:00.081Z,28.86
2023-04-04T08:02:26.736Z,27.39
2023-04-04T08:04:53.338Z,27.92
2023-04-04T08:07:19.922Z,29.23
2023-04-04T08:09:46.490Z,29.30
2023-04-04T08:12:13.044Z,29.58
2023-04-04T08:14:43.731Z,28.60
2023-04-04T08:17:10.292Z,28.50
2023-04-04T08:19:36.845Z,27.81
2023-04-04T08:22:03.470Z,27.78
2023-04-04T08:24:30.065Z,27.50
2023-04-04T08:29:26.167Z,28.89
2023-04-04T08:31:52.846Z,28.02
2023-04-04T08:34:19.427Z,27.51
2023-04-04T08:36:45.982Z,28.06
2023-04-04T08:39:12.709Z,28.05
2023-04-04T08:41:39.611Z,27.55
2023-04-04T08:44:06.267Z,27.71
2023-04-04T08:46:32.908Z,28.34
2023-04-04T08:48:59.814Z,27.61
2023-04-04T08:51:26.349Z,27.16
2023-04-04T08:53:53.072Z,27.61
2023-04-04T08:56:19.696Z,26.70
2023-04-04T08:58:46.396Z,26.72
2023-04-04T09:01:13.032Z,26.61
2023-04-04T09:03:39.629Z,26.53
2023-04-04T09:06:06.585Z,27.25
2023-04-04T09:08:33.331Z,26.85
2023-04-04T09:10:59.988Z,26.88
2023-04-04T09:13:26.544Z,27.89
2023-04-04T09:15:53.147Z,26.16
2023-04-04T09:18:19.738Z,26.05
2023-04-04T09:20:46.285Z,27.25
2023-04-04T09:23:13.203Z,26.92
2023-04-04T09:25:39.822Z,27.61
2023-04-04T09:28:07.087Z,26.58
2023-04-04T09:30:33.627Z,27.22
2023-04-04T09:33:00.280Z,26.61
2023-04-04T09:35:26.853Z,26.58
2023-04-04T09:37:53.574Z,26.82
2023-04-04T09:40:20.624Z,26.52
2023-04-04T09:42:47.396Z,26.78
2023-04-04T09:45:17.122Z,27.01
2023-04-04T09:47:49.191Z,26.51
2023-04-04T09:50:15.753Z,26.02
2023-04-04T09:52:42.277Z,26.25
2023-04-04T09:55:08.864Z,27.13
2023-04-04T09:57:35.402Z,26.22
2023-04-04T10:00:01.962Z,26.37
2023-04-04T10:02:28.561Z,26.56
2023-04-04T10:05:05.184Z,26.17
2023-04-04T10:07:32.383Z,25.62
2023-04-04T10:09:58.992Z,26.90
2023-04-04T10:12:25.701Z,25.40
2023-04-04T10:14:52.274Z,25.57
2023-04-04T10:17:18.915Z,24.68
2023-04-04T10:19:45.457Z,25.50
2023-04-04T10:22:12.078Z,25.47
2023-04-04T10:24:38.665Z,24.86
2023-04-04T10:27:05.258Z,25.12
2023-04-04T10:29:31.803Z,25.02
2023-04-04T10:31:59.408Z,25.33
2023-04-04T10:34:26.276Z,23.91
2023-04-04T10:36:53.024Z,24.91
2023-04-04T10:39:19.617Z,25.16
2023-04-04T10:41:46.245Z,23.88
2023-04-04T10:44:12.904Z,23.71
2023-04-04T10:46:39.639Z,24.92
2023-04-04T10:49:06.232Z,24.04
2023-04-04T10:51:37.066Z,24.15
2023-04-04T10:54:08.797Z,24.82
2023-04-04T10:56:35.326Z,23.84
2023-04-04T10:59:02.006Z,23.48
2023-04-04T11:01:28.740Z,23.66
2023-04-04T11:03:55.334Z,23.81
2023-04-04T11:06:21.969Z,23.96
2023-04-04T11:08:48.542Z,24.28
2023-04-04T11:11:22.715Z,23.87
2023-04-04T11:13:49.616Z,23.56
2023-04-04T11:16:16.341Z,22.95
2023-04-04T11:18:42.986Z,23.79
2023-04-04T11:21:09.538Z,23.19
2023-04-04T11:23:36.184Z,23.21
2023-04-04T11:26:02.742Z,23.61
2023-04-04T11:28:29.304Z,23.25
2023-04-04T11:30:55.883Z,23.76
2023-04-04T11:33:22.519Z,23.28
2023-04-04T11:35:49.156Z,23.27
2023-04-04T11:38:15.750Z,24.16
2023-04-04T11:40:42.320Z,22.57
2023-04-04T11:43:08.921Z,22.62
2023-04-04T11:45:35.461Z,21.64
2023-04-04T11:48:02.231Z,22.65
2023-04-04T11:50:28.858Z,22.88
2023-04-04T11:52:55.413Z,22.11
2023-04-04T11:55:21.981Z,22.52
2023-04-04T11:57:48.539Z,22.67
2023-04-04T12:00:15.118Z,21.99
2023-04-04T12:02:42.484Z,22.07
2023-04-04T12:05:09.764Z,21.50
2023-04-04T12:07:36.536Z,22.48
2023-04-04T12:10:03.127Z,22.33
2023-04-04T12:12:29.680Z,22.46
2023-04-04T12:15:06.168Z,21.88
2023-04-04T12:17:41.403Z,21.60
2023-04-04T12:20:08.041Z,22.05
2023-04-04T12:22:34.624Z,21.87
2023-04-04T12:25:01.245Z,21.33
2023-04-04T12:27:27.814Z,21.42
2023-04-04T12:29:54.844Z,22.02
2023-04-04T12:32:21.402Z,21.78
2023-04-04T12:34:49.981Z,21.19
2023-04-04T12:37:17.556Z,21.37
2023-04-04T12:39:44.083Z,21.58
2023-04-04T12:42:10.646Z,20.89
2023-04-04T12:44:37.244Z,21.63
2023-04-04T12:47:03.850Z,21.31
2023-04-04T12:49:30.417Z,20.36
2023-04-04T12:51:57.010Z,22.85
2023-04-04T12:54:23.554Z,21.68
2023-04-04T12:56:50.202Z,21.73
2023-04-04T12:59:17.146Z,21.03
2023-04-04T13:01:43.782Z,21.93
2023-04-04T13:04:10.418Z,21.59
2023-04-04T13:06:37.154Z,21.92
2023-04-04T13:09:03.760Z,20.71
2023-04-04T13:11:30.349Z,21.45
2023-04-04T13:13:56.954Z,21.78
2023-04-04T13:16:23.516Z,21.69
2023-04-04T13:18:50.121Z,21.04
2023-04-04T13:21:16.716Z,21.42
2023-04-04T13:23:43.284Z,21.47
2023-04-04T13:26:09.845Z,21.88
2023-04-04T13:28:36.656Z,21.69
2023-04-04T13:31:03.287Z,21.49
2023-04-04T13:33:29.897Z,22.11
2023-04-04T13:35:56.440Z,21.27
2023-04-04T13:38:24.226Z,21.57
2023-04-04T13:40:52.742Z,22.06
2023-04-04T13:43:19.304Z,22.18
2023-04-04T13:45:46.165Z,22.10
2023-04-04T13:48:12.736Z,22.08
2023-04-04T13:50:39.394Z,22.13
2023-04-04T13:53:06.010Z,21.55
2023-04-04T13:55:32.624Z,22.08
2023-04-04T13:57:59.235Z,21.10
2023-04-04T14:00:25.912Z,21.22
2023-04-04T14:02:54.391Z,21.20
2023-04-04T14:05:22.482Z,21.92
2023-04-04T14:07:49.013Z,21.52
2023-04-04T14:10:15.590Z,22.89
2023-04-04T14:12:42.158Z,22.46
2023-04-04T14:15:08.710Z,21.74
2023-04-04T14:17:35.276Z,22.18
2023-04-04T14:20:01.932Z,21.49
2023-04-04T14:22:28.465Z,20.63
2023-04-04T14:24:55.093Z,21.65
2023-04-04T14:27:21.666Z,21.03
2023-04-04T14:29:48.216Z,21.34
2023-04-04T14:32:15.841Z,21.32
2023-04-04T14:34:42.429Z,21.80
2023-04-04T14:37:09.017Z,21.22
2023-04-04T14:39:35.553Z,22.17
2023-04-04T14:42:02.160Z,20.89
2023-04-04T14:44:29.120Z,22.28
2023-04-04T14:46:56.215Z,22.51
2023-04-04T14:49:22.784Z,20.97
2023-04-04T14:51:49.540Z,22.55
2023-04-04T14:54:16.211Z,22.56
2023-04-04T14:56:42.795Z,22.36
2023-04-04T14:59:09.387Z,21.80
2023-04-04T15:01:36.033Z,21.93
2023-04-04T15:04:02.739Z,22.05
2023-04-04T15:06:29.376Z,22.15
2023-04-04T15:08:55.977Z,21.88
2023-04-04T15:11:22.695Z,21.81
2023-04-04T15:13:49.330Z,21.73
2023-04-04T15:16:15.893Z,21.43
2023-04-04T15:18:44.543Z,21.69
2023-04-04T15:21:11.125Z,21.63
2023-04-04T15:23:37.726Z,21.80
2023-04-04T15:26:04.272Z,21.85
2023-04-04T15:28:30.864Z,22.52
2023-04-04T15:30:57.404Z,21.83
2023-04-04T15:33:24.001Z,22.02
2023-04-04T15:35:50.579Z,22.45
2023-04-04T15:38:17.157Z,22.52
2023-04-04T15:40:43.778Z,21.87
2023-04-04T15:43:10.364Z,22.18
2023-04-04T15:45:36.981Z,22.77
2023-04-04T15:48:03.593Z,23.05
2023-04-04T15:50:30.187Z,22.56
2023-04-04T15:52:56.752Z,22.87
2023-04-04T15:55:23.312Z,23.39
2023-04-04T15:57:49.907Z,23.04
2023-04-04T16:00:16.459Z,23.31
2023-04-04T16:02:43.365Z,22.94
2023-04-04T16:05:10.233Z,23.61
2023-04-04T16:07:40.987Z,23.97
2023-04-04T16:10:07.537Z,23.97
2023-04-04T16:12:34.317Z,24.31
2023-04-04T16:15:00.975Z,23.95
2023-04-04T16:17:27.615Z,24.60
2023-04-04T16:19:54.195Z,24.38
2023-04-04T16:22:20.737Z,24.19
2023-04-04T16:24:47.366Z,24.25
2023-04-04T16:27:13.982Z,24.52
2023-04-04T16:29:40.552Z,25.05
2023-04-04T16:32:07.244Z,24.68
2023-04-04T16:34:33.878Z,24.67
2023-04-04T16:37:00.488Z,24.28
2023-04-04T16:39:27.387Z,24.68
2023-04-04T16:41:54.028Z,24.79
2023-04-04T16:44:20.635Z,25.70
2023-04-04T16:46:47.281Z,25.34
2023-04-04T16:49:13.866Z,25.26
2023-04-04T16:51:40.475Z,25.48
2023-04-04T16:54:07.365Z,26.26
2023-04-04T16:56:33.940Z,25.93
2023-04-04T16:59:00.833Z,25.78
2023-04-04T17:01:27.530Z,26.77
2023-04-04T17:03:54.180Z,26.58
2023-04-04T17:06:20.788Z,26.62
2023-04-04T17:08:47.331Z,26.87
2023-04-04T17:11:13.911Z,26.77
2023-04-04T17:13:40.438Z,27.53
2023-04-04T17:16:07.025Z,27.61
2023-04-04T17:18:33.590Z,27.71
2023-04-04T17:21:00.151Z,27.83
2023-04-04T17:23:26.739Z,28.20
2023-04-04T17:25:53.274Z,28.10
2023-04-04T17:28:19.903Z,28.37
2023-04-04T17:30:48.769Z,28.03
2023-04-04T17:33:15.329Z,27.79
2023-04-04T17:35:41.929Z,27.92
2023-04-04T17:38:08.484Z,28.95
2023-04-04T17:40:35.058Z,28.99
2023-04-04T17:43:01.661Z,29.03
2023-04-04T17:45:28.197Z,28.70
2023-04-04T17:47:54.831Z,28.82
2023-04-04T17:50:21.405Z,29.20
2023-04-04T17:52:48.027Z,29.25
2023-04-04T17:55:14.562Z,29.12
2023-04-04T17:57:42.195Z,29.15
2023-04-04T18:00:08.788Z,29.38
2023-04-04T18:02:35.521Z,29.66
2023-04-04T18:05:02.084Z,29.20
2023-04-04T18:07:28.685Z,29.66
2023-04-04T18:09:55.254Z,29.94
2023-04-04T18:12:21.981Z,30.00
2023-04-04T18:14:48.539Z,30.28
2023-04-04T18:17:15.105Z,30.21
2023-04-04T18:19:41.989Z,29.96
2023-04-04T18:22:08.531Z,30.24
2023-04-04T18:24:35.112Z,29.74
2023-04-04T18:27:01.685Z,30.13
2023-04-04T18:29:28.363Z,30.37
2023-04-04T18:31:55.135Z,29.70
2023-04-04T18:34:21.817Z,30.16
2023-04-04T18:36:49.481Z,30.88
2023-04-04T18:39:16.255Z,30.56
2023-04-04T18:41:42.847Z,30.51
2023-04-04T18:44:09.530Z,30.89
2023-04-04T18:46:36.139Z,30.74
2023-04-04T18:49:02.724Z,30.52
2023-04-04T18:51:29.281Z,31.02
2023-04-04T18:53:55.872Z,30.83
2023-04-04T18:56:22.416Z,30.34
2023-04-04T18:58:49.028Z,31.05
2023-04-04T19:01:15.753Z,31.26
2023-04-04T19:03:42.444Z,31.60
2023-04-04T19:06:09.098Z,31.81
2023-04-04T19:08:35.726Z,31.65
2023-04-04T19:11:02.373Z,33.22
2023-04-04T19:13:28.970Z,32.76
2023-04-04T19:15:55.556Z,32.19
2023-04-04T19:18:22.141Z,32.65
2023-04-04T19:20:48.698Z,33.05
2023-04-04T19:23:15.269Z,32.92
2023-04-04T19:25:41.994Z,32.31
2023-04-04T19:28:08.834Z,32.79
2023-04-04T19:30:35.410Z,32.79
2023-04-04T19:33:02.112Z,33.37
2023-04-04T19:35:28.820Z,33.61
2023-04-04T19:37:55.448Z,34.11
2023-04-04T19:40:22.023Z,34.03
2023-04-04T19:42:49.195Z,34.25
2023-04-04T19:45:15.745Z,34.17
2023-04-04T19:47:42.449Z,34.02
2023-04-04T19:50:09.185Z,34.87
2023-04-04T19:52:35.765Z,35.07
2023-04-04T19:55:02.377Z,34.22
2023-04-04T19:57:28.991Z,34.23
2023-04-04T19:59:55.564Z,35.49
2023-04-04T20:02:22.154Z,34.86
2023-04-04T20:04:48.779Z,34.95
2023-04-04T20:07:15.385Z,35.52
2023-04-04T20:09:41.940Z,36.07
2023-04-04T20:12:08.507Z,36.37
2023-04-04T20:14:35.041Z,36.77
2023-04-04T20:17:01.836Z,36.59
2023-04-04T20:19:28.406Z,36.47
2023-04-04T20:21:55.083Z,36.46
2023-04-04T20:24:21.880Z,36.85
2023-04-04T20:26:48.752Z,37.71
2023-04-04T20:29:15.303Z,38.15
2023-04-04T20:31:41.878Z,37.05
2023-04-04T20:34:08.491Z,36.91
2023-04-04T20:36:35.030Z,36.34
2023-04-04T20:39:01.637Z,37.34
2023-04-04T20:41:28.268Z,37.26
2023-04-04T20:43:57.246Z,38.44
2023-04-04T20:46:23.809Z,37.57
2023-04-04T20:48:50.407Z,37.52
2023-04-04T20:51:16.950Z,38.37
2023-04-04T20:53:50.795Z,38.11
2023-04-04T20:56:17.371Z,38.30
2023-04-04T20:58:43.918Z,38.69
2023-04-04T21:01:10.546Z,37.81
2023-04-04T21:03:37.130Z,37.55
2023-04-04T21:06:03.687Z,38.45
2023-04-04T21:08:30.260Z,38.78
2023-04-04T21:10:56.919Z,38.78
2023-04-04T21:13:23.509Z,38.49
2023-04-04T21:15:50.128Z,39.23
2023-04-04T21:18:17.913Z,39.27
2023-04-04T21:20:44.489Z,39.92
2023-04-04T21:23:11.124Z,40.14
2023-04-04T21:25:37.806Z,39.26
2023-04-04T21:28:04.355Z,39.60
2023-04-04T21:30:30.943Z,39.69
2023-04-04T21:32:57.573Z,40.22
2023-04-04T21:35:24.410Z,39.76
2023-04-04T21:37:51.037Z,41.03
2023-04-04T21:40:17.574Z,40.54
2023-04-04T21:42:44.208Z,40.78
2023-04-04T21:45:10.817Z,41.05
2023-04-04T21:47:37.445Z,41.14
2023-04-04T21:50:04.046Z,40.55
2023-04-04T21:52:30.595Z,40.54
2023-04-04T21:54:57.168Z,40.20
2023-04-04T21:57:23.689Z,41.11
2023-04-04T21:59:50.287Z,40.54
2023-04-04T22:02:16.839Z,40.95
2023-04-04T22:04:43.486Z,42.33
2023-04-04T22:07:11.278Z,41.97
2023-04-04T22:09:37.829Z,41.05
2023-04-04T22:12:04.410Z,42.16
2023-04-04T22:14:30.957Z,41.98
2023-04-04T22:16:57.496Z,42.29
2023-04-04T22:19:24.125Z,42.41
2023-04-04T22:21:50.935Z,42.00
2023-04-04T22:24:17.591Z,41.88
2023-04-04T22:26:44.220Z,42.21
2023-04-04T22:29:10.780Z,42.04
2023-04-04T22:31:37.580Z,42.39
2023-04-04T22:34:04.356Z,43.13
2023-04-04T22:36:31.362Z,42.57
2023-04-04T22:38:58.414Z,43.65
2023-04-04T22:41:25.208Z,42.97
2023-04-04T22:43:51.740Z,43.07
2023-04-04T22:46:18.324Z,42.86
2023-04-04T22:48:46.963Z,43.53
2023-04-04T22:51:13.832Z,43.21
2023-04-04T22:53:40.386Z,43.21
2023-04-04T22:56:06.992Z,42.66
2023-04-04T22:58:33.565Z,42.79
2023-04-04T23:01:00.206Z,43.04
2023-04-04T23:03:26.778Z,42.62
2023-04-04T23:05:53.343Z,42.86
2023-04-04T23:08:20.045Z,43.39
2023-04-04T23:10:46.745Z,43.02
2023-04-04T23:13:13.273Z,43.40
2023-04-04T23:15:39.878Z,43.02
2023-04-04T23:18:06.792Z,43.06
2023-04-04T23:20:33.353Z,43.20
2023-04-04T23:22:59.990Z,44.03
2023-04-04T23:25:26.555Z,43.93
2023-04-04T23:27:53.127Z,43.27
2023-04-04T23:30:19.718Z,43.44
2023-04-04T23:32:46.292Z,43.50
2023-04-04T23:35:12.918Z,44.89
2023-04-04T23:37:39.894Z,43.77
2023-04-04T23:40:06.486Z,43.49
2023-04-04T23:42:33.035Z,43.67
2023-04-04T23:44:59.593Z,43.35
2023-04-04T23:47:26.321Z,43.74
2023-04-04T23:49:52.886Z,43.16
2023-04-04T23:52:19.433Z,43.98
2023-04-04T23:54:46.011Z,43.21
2023-04-04T23:57:12.608Z,43.40
2023-04-04T23:59:39.175Z,44.48
